Airfield :
LOGIN :

Register | Disclaimer

   EN    FR    IT 

 










Legend :    VFR   Marginal VFR   IFR   Intensive IFR   Very Intensive IFR
Visi :
Ceiling :
>= 8 km
>= 3000ft
5 to 8 km
1000 to 3000 ft
1500m to 5 km
500 to 1000 ft
800 to 1500m
200 to 500 ft
< 800m
< 200 ft
Symbols :   Thunderstorms  Fog  Heavy snow  Heavy precipitations  Wind > 20 kt
SIGMETs :     Misc.  Thunderstorms  Icing  Turbulence  Mountain Waves  Volcanic Ashes






- Airport Elevation : 195 ft


LFMY - Salon de Provence

CURRENT METAR :
  • 211630Z AUTO 16009KT 130V190 9999 FEW024 BKN030 OVC037 13/09 Q1008 NOSIG

EXPIRED METARs :
  • 211600Z AUTO 17010KT 130V200 9999 BKN026 BKN032 OVC040 13/10 Q1008 NOSIG
  • 211530Z AUTO 15008KT 100V170 9999 BKN026 BKN032 OVC045 14/09 Q1007 NOSIG
  • 211500Z AUTO 14008KT 100V180 9999 BKN026 OVC036 14/09 Q1007 NOSIG
  • 211430Z AUTO 14009KT 9999 BKN024 BKN030 OVC036 14/10 Q1007 NOSIG
  • 211400Z AUTO 13004KT 090V210 9999 OVC024 13/09 Q1008 NOSIG

TAF TAF LFMY
Valid from the 21 at 15:00 until the 22 at 15:00 UTC


211400Z 2115/2215 14010KT 9999 BKN022 BKN035 TX14/2214Z TN08/2205Z
PROB40
TEMPO 2121/2206 BKN014
BECMG 2206/2208 14015G28KT
BECMG 2209/2211 VRB15G28KT 3000 +SHRA SCT008 BKN015CB
PROB40
TEMPO 2211/2213 1000 TSRA
BECMG 2213/2215 28015G25KT CAVOK



MET'MAP, your aeronautical weather chart ! - Copyright ORBIFLY December 2007 - Disclaimer

ORBIFLY MET'MAP TEAM :

Programming & Development : Alexandra Zaïnal
Concept & original design : Baudouin d'Aumeries
Assistance for programming : Marc-Olivier Méhu
Technical & hardware support : Manuel Goepfert

Contact : metmap@orbifly.com




SOURCES & CREDITS :

   NOAA